sensor_id;sensor_type;location;lat;lon;timestamp;temperature;humidity
55064;DHT22;40963;52.168;21.296;2023-08-20T00:00:16;19.70;99.90
55064;DHT22;40963;52.168;21.296;2023-08-20T00:02:43;19.60;99.90
55064;DHT22;40963;52.168;21.296;2023-08-20T00:05:11;19.60;99.90
55064;DHT22;40963;52.168;21.296;2023-08-20T00:07:37;19.60;99.90
55064;DHT22;40963;52.168;21.296;2023-08-20T00:10:03;19.60;99.90
55064;DHT22;40963;52.168;21.296;2023-08-20T00:12:30;19.50;99.90
55064;DHT22;40963;52.168;21.296;2023-08-20T00:14:56;19.50;99.90
55064;DHT22;40963;52.168;21.296;2023-08-20T00:17:24;19.60;99.90
55064;DHT22;40963;52.168;21.296;2023-08-20T00:19:55;19.60;99.90
55064;DHT22;40963;52.168;21.296;2023-08-20T00:22:25;19.50;99.90
55064;DHT22;40963;52.168;21.296;2023-08-20T00:24:54;19.50;99.90
55064;DHT22;40963;52.168;21.296;2023-08-20T00:27:20;19.40;99.90
55064;DHT22;40963;52.168;21.296;2023-08-20T00:29:46;19.40;99.90
55064;DHT22;40963;52.168;21.296;2023-08-20T00:32:11;19.40;99.90
55064;DHT22;40963;52.168;21.296;2023-08-20T00:34:37;19.40;99.90
55064;DHT22;40963;52.168;21.296;2023-08-20T00:37:03;19.40;99.90
55064;DHT22;40963;52.168;21.296;2023-08-20T00:39:29;19.40;99.90
55064;DHT22;40963;52.168;21.296;2023-08-20T00:41:55;19.40;99.90
55064;DHT22;40963;52.168;21.296;2023-08-20T00:44:21;19.40;99.90
55064;DHT22;40963;52.168;21.296;2023-08-20T00:46:46;19.40;99.90
55064;DHT22;40963;52.168;21.296;2023-08-20T00:49:12;19.40;99.90
55064;DHT22;40963;52.168;21.296;2023-08-20T00:51:38;19.40;99.90
55064;DHT22;40963;52.168;21.296;2023-08-20T00:54:04;19.30;99.90
55064;DHT22;40963;52.168;21.296;2023-08-20T00:56:30;19.20;99.90
55064;DHT22;40963;52.168;21.296;2023-08-20T00:58:57;19.20;99.90
55064;DHT22;40963;52.168;21.296;2023-08-20T01:01:23;19.20;99.90
55064;DHT22;40963;52.168;21.296;2023-08-20T01:03:48;19.20;99.90
55064;DHT22;40963;52.168;21.296;2023-08-20T01:11:57;19.20;99.90
55064;DHT22;40963;52.168;21.296;2023-08-20T01:14:24;19.20;99.90
55064;DHT22;40963;52.168;21.296;2023-08-20T01:16:49;19.20;99.90
55064;DHT22;40963;52.168;21.296;2023-08-20T01:19:21;19.20;99.90
55064;DHT22;40963;52.168;21.296;2023-08-20T01:30:31;19.20;99.90
55064;DHT22;40963;52.168;21.296;2023-08-20T01:32:58;19.10;99.90
55064;DHT22;40963;52.168;21.296;2023-08-20T01:35:24;19.10;99.90
55064;DHT22;40963;52.168;21.296;2023-08-20T01:37:53;19.10;99.90
55064;DHT22;40963;52.168;21.296;2023-08-20T01:40:18;19.10;99.90
55064;DHT22;40963;52.168;21.296;2023-08-20T01:42:44;19.10;99.90
55064;DHT22;40963;52.168;21.296;2023-08-20T01:45:09;19.10;99.90
55064;DHT22;40963;52.168;21.296;2023-08-20T01:47:36;19.10;99.90
55064;DHT22;40963;52.168;21.296;2023-08-20T01:50:02;19.00;99.90
55064;DHT22;40963;52.168;21.296;2023-08-20T01:52:28;19.00;99.90
55064;DHT22;40963;52.168;21.296;2023-08-20T01:54:55;19.00;99.90
55064;DHT22;40963;52.168;21.296;2023-08-20T01:57:21;19.00;99.90
55064;DHT22;40963;52.168;21.296;2023-08-20T01:59:48;18.90;99.90
55064;DHT22;40963;52.168;21.296;2023-08-20T02:02:13;19.00;99.90
55064;DHT22;40963;52.168;21.296;2023-08-20T02:04:39;18.90;99.90
55064;DHT22;40963;52.168;21.296;2023-08-20T02:07:04;18.90;99.90
55064;DHT22;40963;52.168;21.296;2023-08-20T02:09:30;18.90;99.90
55064;DHT22;40963;52.168;21.296;2023-08-20T02:11:56;18.90;99.90
55064;DHT22;40963;52.168;21.296;2023-08-20T02:14:21;18.90;99.90
55064;DHT22;40963;52.168;21.296;2023-08-20T02:16:48;18.90;99.90
55064;DHT22;40963;52.168;21.296;2023-08-20T02:19:13;18.90;99.90
55064;DHT22;40963;52.168;21.296;2023-08-20T02:21:40;18.90;99.90
55064;DHT22;40963;52.168;21.296;2023-08-20T02:24:06;18.90;99.90
55064;DHT22;40963;52.168;21.296;2023-08-20T02:26:31;18.90;99.90
55064;DHT22;40963;52.168;21.296;2023-08-20T02:28:57;18.90;99.90
55064;DHT22;40963;52.168;21.296;2023-08-20T02:31:22;18.90;99.90
55064;DHT22;40963;52.168;21.296;2023-08-20T02:33:48;18.90;99.90
55064;DHT22;40963;52.168;21.296;2023-08-20T02:36:14;18.90;99.90
55064;DHT22;40963;52.168;21.296;2023-08-20T02:38:39;18.90;99.90
55064;DHT22;40963;52.168;21.296;2023-08-20T02:41:05;18.90;99.90
55064;DHT22;40963;52.168;21.296;2023-08-20T02:43:30;18.90;99.90
55064;DHT22;40963;52.168;21.296;2023-08-20T02:45:56;18.90;99.90
55064;DHT22;40963;52.168;21.296;2023-08-20T02:48:22;18.90;99.90
55064;DHT22;40963;52.168;21.296;2023-08-20T02:50:53;18.90;99.90
55064;DHT22;40963;52.168;21.296;2023-08-20T02:53:18;18.90;99.90
55064;DHT22;40963;52.168;21.296;2023-08-20T02:55:44;18.90;99.90
55064;DHT22;40963;52.168;21.296;2023-08-20T02:58:10;18.90;99.90
55064;DHT22;40963;52.168;21.296;2023-08-20T03:00:35;18.80;99.90
55064;DHT22;40963;52.168;21.296;2023-08-20T03:03:02;18.80;99.90
55064;DHT22;40963;52.168;21.296;2023-08-20T03:05:34;18.70;99.90
55064;DHT22;40963;52.168;21.296;2023-08-20T03:08:00;18.70;99.90
55064;DHT22;40963;52.168;21.296;2023-08-20T03:10:27;18.70;99.90
55064;DHT22;40963;52.168;21.296;2023-08-20T03:12:53;18.70;99.90
55064;DHT22;40963;52.168;21.296;2023-08-20T03:15:18;18.70;99.90
55064;DHT22;40963;52.168;21.296;2023-08-20T03:17:44;18.70;99.90
55064;DHT22;40963;52.168;21.296;2023-08-20T03:20:10;18.60;99.90
55064;DHT22;40963;52.168;21.296;2023-08-20T03:22:37;18.60;99.90
55064;DHT22;40963;52.168;21.296;2023-08-20T03:25:03;18.60;99.90
55064;DHT22;40963;52.168;21.296;2023-08-20T03:27:29;18.60;99.90
55064;DHT22;40963;52.168;21.296;2023-08-20T03:29:54;18.60;99.90
55064;DHT22;40963;52.168;21.296;2023-08-20T03:32:20;18.60;99.90
55064;DHT22;40963;52.168;21.296;2023-08-20T03:34:46;18.60;99.90
55064;DHT22;40963;52.168;21.296;2023-08-20T03:37:12;18.60;99.90
55064;DHT22;40963;52.168;21.296;2023-08-20T03:39:37;18.60;99.90
55064;DHT22;40963;52.168;21.296;2023-08-20T03:42:03;18.60;99.90
55064;DHT22;40963;52.168;21.296;2023-08-20T03:44:29;18.60;99.90
55064;DHT22;40963;52.168;21.296;2023-08-20T03:46:55;18.50;99.90
55064;DHT22;40963;52.168;21.296;2023-08-20T03:49:21;18.50;99.90
55064;DHT22;40963;52.168;21.296;2023-08-20T03:51:47;18.50;99.90
55064;DHT22;40963;52.168;21.296;2023-08-20T03:54:13;18.50;99.90
55064;DHT22;40963;52.168;21.296;2023-08-20T03:56:38;18.50;99.90
55064;DHT22;40963;52.168;21.296;2023-08-20T03:59:04;18.60;99.90
55064;DHT22;40963;52.168;21.296;2023-08-20T04:01:30;18.60;99.90
55064;DHT22;40963;52.168;21.296;2023-08-20T04:03:56;18.60;99.90
55064;DHT22;40963;52.168;21.296;2023-08-20T04:06:21;18.60;99.90
55064;DHT22;40963;52.168;21.296;2023-08-20T04:08:47;18.60;99.90
55064;DHT22;40963;52.168;21.296;2023-08-20T04:11:12;18.60;99.90
55064;DHT22;40963;52.168;21.296;2023-08-20T04:13:38;18.60;99.90
55064;DHT22;40963;52.168;21.296;2023-08-20T04:16:05;18.70;99.90
55064;DHT22;40963;52.168;21.296;2023-08-20T04:18:30;18.70;99.90
55064;DHT22;40963;52.168;21.296;2023-08-20T04:20:56;18.70;99.90
55064;DHT22;40963;52.168;21.296;2023-08-20T04:23:23;18.70;99.90
55064;DHT22;40963;52.168;21.296;2023-08-20T04:25:48;18.80;99.90
55064;DHT22;40963;52.168;21.296;2023-08-20T04:28:14;18.80;99.90
55064;DHT22;40963;52.168;21.296;2023-08-20T04:30:39;18.80;99.90
55064;DHT22;40963;52.168;21.296;2023-08-20T04:33:05;18.90;99.90
55064;DHT22;40963;52.168;21.296;2023-08-20T04:35:31;18.90;99.90
55064;DHT22;40963;52.168;21.296;2023-08-20T04:37:57;18.90;99.90
55064;DHT22;40963;52.168;21.296;2023-08-20T04:40:22;18.90;99.90
55064;DHT22;40963;52.168;21.296;2023-08-20T04:42:48;18.90;99.90
55064;DHT22;40963;52.168;21.296;2023-08-20T04:45:14;18.90;99.90
55064;DHT22;40963;52.168;21.296;2023-08-20T04:47:42;19.00;99.90
55064;DHT22;40963;52.168;21.296;2023-08-20T04:50:08;19.10;99.90
55064;DHT22;40963;52.168;21.296;2023-08-20T04:52:34;19.10;99.90
55064;DHT22;40963;52.168;21.296;2023-08-20T04:55:01;19.10;99.90
55064;DHT22;40963;52.168;21.296;2023-08-20T04:57:26;19.10;99.90
55064;DHT22;40963;52.168;21.296;2023-08-20T04:59:52;19.20;99.90
55064;DHT22;40963;52.168;21.296;2023-08-20T05:02:18;19.20;99.90
55064;DHT22;40963;52.168;21.296;2023-08-20T05:04:43;19.30;99.90
55064;DHT22;40963;52.168;21.296;2023-08-20T05:07:09;19.30;99.90
55064;DHT22;40963;52.168;21.296;2023-08-20T05:09:35;19.40;99.90
55064;DHT22;40963;52.168;21.296;2023-08-20T05:12:01;19.40;99.90
55064;DHT22;40963;52.168;21.296;2023-08-20T05:14:26;19.50;99.90
55064;DHT22;40963;52.168;21.296;2023-08-20T05:16:52;19.60;99.90
55064;DHT22;40963;52.168;21.296;2023-08-20T05:19:17;19.60;99.90
55064;DHT22;40963;52.168;21.296;2023-08-20T05:21:43;19.70;99.90
55064;DHT22;40963;52.168;21.296;2023-08-20T05:24:09;19.80;99.90
55064;DHT22;40963;52.168;21.296;2023-08-20T05:26:34;19.90;99.90
55064;DHT22;40963;52.168;21.296;2023-08-20T05:29:00;20.00;99.90
55064;DHT22;40963;52.168;21.296;2023-08-20T05:31:26;20.00;99.90
55064;DHT22;40963;52.168;21.296;2023-08-20T05:33:51;20.10;99.90
55064;DHT22;40963;52.168;21.296;2023-08-20T05:36:17;20.20;99.90
55064;DHT22;40963;52.168;21.296;2023-08-20T05:38:42;20.20;99.90
55064;DHT22;40963;52.168;21.296;2023-08-20T05:41:08;20.30;99.90
55064;DHT22;40963;52.168;21.296;2023-08-20T05:43:34;20.50;99.90
55064;DHT22;40963;52.168;21.296;2023-08-20T05:46:02;20.50;99.90
55064;DHT22;40963;52.168;21.296;2023-08-20T05:48:28;20.60;99.90
55064;DHT22;40963;52.168;21.296;2023-08-20T05:50:53;20.70;99.90
55064;DHT22;40963;52.168;21.296;2023-08-20T05:53:19;20.80;99.90
55064;DHT22;40963;52.168;21.296;2023-08-20T05:55:44;20.90;99.90
55064;DHT22;40963;52.168;21.296;2023-08-20T05:58:10;21.00;99.90
55064;DHT22;40963;52.168;21.296;2023-08-20T06:00:36;21.10;99.90
55064;DHT22;40963;52.168;21.296;2023-08-20T06:03:02;21.20;99.90
55064;DHT22;40963;52.168;21.296;2023-08-20T06:05:27;21.20;99.90
55064;DHT22;40963;52.168;21.296;2023-08-20T06:07:53;21.40;99.90
55064;DHT22;40963;52.168;21.296;2023-08-20T06:10:18;21.50;99.90
55064;DHT22;40963;52.168;21.296;2023-08-20T06:12:44;21.60;99.90
55064;DHT22;40963;52.168;21.296;2023-08-20T06:15:10;21.70;99.90
55064;DHT22;40963;52.168;21.296;2023-08-20T06:17:35;21.80;99.90
55064;DHT22;40963;52.168;21.296;2023-08-20T06:20:01;21.90;99.90
55064;DHT22;40963;52.168;21.296;2023-08-20T06:22:26;22.00;99.90
55064;DHT22;40963;52.168;21.296;2023-08-20T06:24:52;22.10;99.90
55064;DHT22;40963;52.168;21.296;2023-08-20T06:27:17;22.20;99.90
55064;DHT22;40963;52.168;21.296;2023-08-20T06:29:43;22.30;99.90
55064;DHT22;40963;52.168;21.296;2023-08-20T06:32:08;22.50;99.90
55064;DHT22;40963;52.168;21.296;2023-08-20T06:34:35;22.60;99.90
55064;DHT22;40963;52.168;21.296;2023-08-20T06:37:01;22.70;99.90
55064;DHT22;40963;52.168;21.296;2023-08-20T06:39:27;22.90;99.90
55064;DHT22;40963;52.168;21.296;2023-08-20T06:41:53;23.00;99.90
55064;DHT22;40963;52.168;21.296;2023-08-20T06:44:18;23.10;99.90
55064;DHT22;40963;52.168;21.296;2023-08-20T06:46:44;23.20;99.90
55064;DHT22;40963;52.168;21.296;2023-08-20T06:49:09;23.30;99.90
55064;DHT22;40963;52.168;21.296;2023-08-20T06:51:35;23.50;99.90
55064;DHT22;40963;52.168;21.296;2023-08-20T06:54:01;23.60;99.90
55064;DHT22;40963;52.168;21.296;2023-08-20T06:56:28;23.70;99.90
55064;DHT22;40963;52.168;21.296;2023-08-20T06:58:53;23.80;99.90
55064;DHT22;40963;52.168;21.296;2023-08-20T07:01:19;24.00;99.90
55064;DHT22;40963;52.168;21.296;2023-08-20T07:03:45;24.10;99.90
55064;DHT22;40963;52.168;21.296;2023-08-20T07:06:11;24.20;99.90
55064;DHT22;40963;52.168;21.296;2023-08-20T07:08:40;24.30;99.90
55064;DHT22;40963;52.168;21.296;2023-08-20T07:11:06;24.50;99.90
55064;DHT22;40963;52.168;21.296;2023-08-20T07:13:32;24.60;99.90
55064;DHT22;40963;52.168;21.296;2023-08-20T07:15:58;24.70;99.90
55064;DHT22;40963;52.168;21.296;2023-08-20T07:18:23;24.80;99.90
55064;DHT22;40963;52.168;21.296;2023-08-20T07:20:50;24.90;99.90
55064;DHT22;40963;52.168;21.296;2023-08-20T07:23:16;25.10;99.90
55064;DHT22;40963;52.168;21.296;2023-08-20T07:25:42;25.10;99.90
55064;DHT22;40963;52.168;21.296;2023-08-20T07:28:08;25.30;99.90
55064;DHT22;40963;52.168;21.296;2023-08-20T07:30:34;25.40;99.90
55064;DHT22;40963;52.168;21.296;2023-08-20T07:33:01;25.50;99.90
55064;DHT22;40963;52.168;21.296;2023-08-20T07:35:26;25.70;99.90
55064;DHT22;40963;52.168;21.296;2023-08-20T07:37:52;25.80;99.90
55064;DHT22;40963;52.168;21.296;2023-08-20T07:40:18;25.90;99.90
55064;DHT22;40963;52.168;21.296;2023-08-20T07:42:44;25.90;99.90
55064;DHT22;40963;52.168;21.296;2023-08-20T07:45:10;26.00;99.90
55064;DHT22;40963;52.168;21.296;2023-08-20T07:47:36;26.10;99.90
55064;DHT22;40963;52.168;21.296;2023-08-20T07:50:03;26.20;99.90
55064;DHT22;40963;52.168;21.296;2023-08-20T07:52:28;26.40;99.90
55064;DHT22;40963;52.168;21.296;2023-08-20T07:54:54;26.40;99.90
55064;DHT22;40963;52.168;21.296;2023-08-20T07:57:19;26.50;99.90
55064;DHT22;40963;52.168;21.296;2023-08-20T07:59:45;26.60;99.90
55064;DHT22;40963;52.168;21.296;2023-08-20T08:02:11;26.70;99.90
55064;DHT22;40963;52.168;21.296;2023-08-20T08:04:36;26.80;99.90
55064;DHT22;40963;52.168;21.296;2023-08-20T08:07:02;26.80;99.90
55064;DHT22;40963;52.168;21.296;2023-08-20T08:09:30;26.80;99.90
55064;DHT22;40963;52.168;21.296;2023-08-20T08:11:56;26.90;99.90
55064;DHT22;40963;52.168;21.296;2023-08-20T08:14:22;27.00;99.90
55064;DHT22;40963;52.168;21.296;2023-08-20T08:16:48;27.10;99.90
55064;DHT22;40963;52.168;21.296;2023-08-20T08:19:14;27.20;99.90
55064;DHT22;40963;52.168;21.296;2023-08-20T08:21:41;27.30;99.90
55064;DHT22;40963;52.168;21.296;2023-08-20T08:24:07;27.40;99.90
55064;DHT22;40963;52.168;21.296;2023-08-20T08:26:34;27.40;99.90
55064;DHT22;40963;52.168;21.296;2023-08-20T08:28:59;27.40;99.90
55064;DHT22;40963;52.168;21.296;2023-08-20T08:31:25;27.50;99.90
55064;DHT22;40963;52.168;21.296;2023-08-20T08:33:51;27.50;99.90
55064;DHT22;40963;52.168;21.296;2023-08-20T08:36:17;27.60;99.90
55064;DHT22;40963;52.168;21.296;2023-08-20T08:38:44;27.60;99.90
55064;DHT22;40963;52.168;21.296;2023-08-20T08:41:11;27.70;99.90
55064;DHT22;40963;52.168;21.296;2023-08-20T08:43:40;27.80;99.90
55064;DHT22;40963;52.168;21.296;2023-08-20T08:46:07;27.90;99.90
55064;DHT22;40963;52.168;21.296;2023-08-20T08:48:34;27.90;99.90
55064;DHT22;40963;52.168;21.296;2023-08-20T08:51:03;27.90;99.20
55064;DHT22;40963;52.168;21.296;2023-08-20T08:53:30;27.90;99.20
55064;DHT22;40963;52.168;21.296;2023-08-20T08:55:57;28.00;99.90
55064;DHT22;40963;52.168;21.296;2023-08-20T08:58:22;28.10;99.00
55064;DHT22;40963;52.168;21.296;2023-08-20T09:00:49;28.10;98.60
55064;DHT22;40963;52.168;21.296;2023-08-20T09:03:14;28.10;97.80
55064;DHT22;40963;52.168;21.296;2023-08-20T09:05:54;28.10;97.40
55064;DHT22;40963;52.168;21.296;2023-08-20T09:08:20;28.20;98.30
55064;DHT22;40963;52.168;21.296;2023-08-20T09:10:49;28.40;98.70
55064;DHT22;40963;52.168;21.296;2023-08-20T09:13:15;28.50;97.50
55064;DHT22;40963;52.168;21.296;2023-08-20T09:15:41;28.50;95.80
55064;DHT22;40963;52.168;21.296;2023-08-20T09:18:09;28.60;96.20
55064;DHT22;40963;52.168;21.296;2023-08-20T09:20:38;28.60;95.70
55064;DHT22;40963;52.168;21.296;2023-08-20T09:23:13;28.80;94.60
55064;DHT22;40963;52.168;21.296;2023-08-20T09:25:39;28.90;93.50
55064;DHT22;40963;52.168;21.296;2023-08-20T09:28:05;29.00;93.30
55064;DHT22;40963;52.168;21.296;2023-08-20T09:30:31;29.10;92.50
55064;DHT22;40963;52.168;21.296;2023-08-20T09:33:05;29.10;91.30
55064;DHT22;40963;52.168;21.296;2023-08-20T09:35:30;29.10;89.40
55064;DHT22;40963;52.168;21.296;2023-08-20T09:38:03;29.00;87.10
55064;DHT22;40963;52.168;21.296;2023-08-20T09:40:30;29.00;88.80
55064;DHT22;40963;52.168;21.296;2023-08-20T09:42:57;29.00;88.30
55064;DHT22;40963;52.168;21.296;2023-08-20T09:45:28;29.00;88.60
55064;DHT22;40963;52.168;21.296;2023-08-20T09:47:58;29.00;90.00
55064;DHT22;40963;52.168;21.296;2023-08-20T09:50:26;29.20;91.10
55064;DHT22;40963;52.168;21.296;2023-08-20T09:55:21;29.50;85.00
55064;DHT22;40963;52.168;21.296;2023-08-20T09:57:48;29.70;83.10
55064;DHT22;40963;52.168;21.296;2023-08-20T10:00:13;29.70;79.80
55064;DHT22;40963;52.168;21.296;2023-08-20T10:02:40;29.70;77.30
55064;DHT22;40963;52.168;21.296;2023-08-20T10:05:07;29.60;76.70
55064;DHT22;40963;52.168;21.296;2023-08-20T10:07:34;29.60;76.80
55064;DHT22;40963;52.168;21.296;2023-08-20T10:10:02;29.60;77.40
55064;DHT22;40963;52.168;21.296;2023-08-20T10:12:29;29.70;78.10
55064;DHT22;40963;52.168;21.296;2023-08-20T10:14:58;29.70;77.50
55064;DHT22;40963;52.168;21.296;2023-08-20T10:17:25;29.60;79.70
55064;DHT22;40963;52.168;21.296;2023-08-20T10:19:54;29.60;80.90
55064;DHT22;40963;52.168;21.296;2023-08-20T10:22:20;29.60;79.10
55064;DHT22;40963;52.168;21.296;2023-08-20T10:24:52;29.60;79.90
55064;DHT22;40963;52.168;21.296;2023-08-20T10:27:25;29.70;81.70
55064;DHT22;40963;52.168;21.296;2023-08-20T10:29:53;29.70;80.70
55064;DHT22;40963;52.168;21.296;2023-08-20T10:32:19;29.80;80.50
55064;DHT22;40963;52.168;21.296;2023-08-20T10:34:51;29.90;77.10
55064;DHT22;40963;52.168;21.296;2023-08-20T10:37:26;30.00;75.40
55064;DHT22;40963;52.168;21.296;2023-08-20T10:39:54;30.00;75.50
55064;DHT22;40963;52.168;21.296;2023-08-20T10:45:05;30.20;71.60
55064;DHT22;40963;52.168;21.296;2023-08-20T10:47:41;30.10;71.90
55064;DHT22;40963;52.168;21.296;2023-08-20T10:50:18;29.90;71.60
55064;DHT22;40963;52.168;21.296;2023-08-20T10:52:55;29.80;72.50
55064;DHT22;40963;52.168;21.296;2023-08-20T10:55:24;29.80;71.80
55064;DHT22;40963;52.168;21.296;2023-08-20T10:57:57;29.90;70.50
55064;DHT22;40963;52.168;21.296;2023-08-20T11:00:24;29.90;71.50
55064;DHT22;40963;52.168;21.296;2023-08-20T11:02:51;30.00;71.40
55064;DHT22;40963;52.168;21.296;2023-08-20T11:05:19;30.10;71.50
55064;DHT22;40963;52.168;21.296;2023-08-20T11:07:45;30.30;68.70
55064;DHT22;40963;52.168;21.296;2023-08-20T11:10:13;30.40;67.40
55064;DHT22;40963;52.168;21.296;2023-08-20T11:12:40;30.40;67.30
55064;DHT22;40963;52.168;21.296;2023-08-20T11:15:07;30.30;67.60
55064;DHT22;40963;52.168;21.296;2023-08-20T11:17:32;30.30;69.50
55064;DHT22;40963;52.168;21.296;2023-08-20T11:19:58;30.30;68.90
55064;DHT22;40963;52.168;21.296;2023-08-20T11:22:24;30.40;69.80
55064;DHT22;40963;52.168;21.296;2023-08-20T11:24:50;30.50;69.40
55064;DHT22;40963;52.168;21.296;2023-08-20T11:27:16;30.60;68.80
55064;DHT22;40963;52.168;21.296;2023-08-20T11:29:44;30.40;66.20
55064;DHT22;40963;52.168;21.296;2023-08-20T11:32:10;30.30;66.60
55064;DHT22;40963;52.168;21.296;2023-08-20T11:34:36;30.20;68.10
55064;DHT22;40963;52.168;21.296;2023-08-20T11:37:04;30.20;68.50
55064;DHT22;40963;52.168;21.296;2023-08-20T11:39:30;30.30;68.10
55064;DHT22;40963;52.168;21.296;2023-08-20T11:41:56;30.30;67.40
55064;DHT22;40963;52.168;21.296;2023-08-20T11:44:22;30.30;66.10
55064;DHT22;40963;52.168;21.296;2023-08-20T11:46:48;30.40;66.50
55064;DHT22;40963;52.168;21.296;2023-08-20T11:49:15;30.40;66.40
55064;DHT22;40963;52.168;21.296;2023-08-20T11:51:41;30.40;67.00
55064;DHT22;40963;52.168;21.296;2023-08-20T11:54:12;30.30;65.30
55064;DHT22;40963;52.168;21.296;2023-08-20T11:56:51;30.30;66.20
55064;DHT22;40963;52.168;21.296;2023-08-20T11:59:20;30.20;66.60
55064;DHT22;40963;52.168;21.296;2023-08-20T12:01:56;30.10;65.60
55064;DHT22;40963;52.168;21.296;2023-08-20T12:04:25;30.10;65.70
55064;DHT22;40963;52.168;21.296;2023-08-20T12:07:05;30.10;65.20
55064;DHT22;40963;52.168;21.296;2023-08-20T12:09:31;30.20;65.00
55064;DHT22;40963;52.168;21.296;2023-08-20T12:11:58;30.40;64.50
55064;DHT22;40963;52.168;21.296;2023-08-20T12:14:24;30.50;62.50
55064;DHT22;40963;52.168;21.296;2023-08-20T12:16:50;30.60;61.80
55064;DHT22;40963;52.168;21.296;2023-08-20T12:19:19;30.80;61.50
55064;DHT22;40963;52.168;21.296;2023-08-20T12:21:45;30.90;62.20
55064;DHT22;40963;52.168;21.296;2023-08-20T12:24:11;31.00;62.50
55064;DHT22;40963;52.168;21.296;2023-08-20T12:26:37;31.00;62.90
55064;DHT22;40963;52.168;21.296;2023-08-20T12:29:03;31.00;62.80
55064;DHT22;40963;52.168;21.296;2023-08-20T12:31:29;31.00;61.90
55064;DHT22;40963;52.168;21.296;2023-08-20T12:33:55;30.90;62.70
55064;DHT22;40963;52.168;21.296;2023-08-20T12:36:20;30.80;62.50
55064;DHT22;40963;52.168;21.296;2023-08-20T12:38:46;30.70;63.20
55064;DHT22;40963;52.168;21.296;2023-08-20T12:41:11;30.70;64.10
55064;DHT22;40963;52.168;21.296;2023-08-20T12:43:37;30.60;63.10
55064;DHT22;40963;52.168;21.296;2023-08-20T12:46:03;30.60;63.10
55064;DHT22;40963;52.168;21.296;2023-08-20T12:48:29;30.70;63.10
55064;DHT22;40963;52.168;21.296;2023-08-20T12:50:55;30.90;63.80
55064;DHT22;40963;52.168;21.296;2023-08-20T12:53:21;31.10;63.40
55064;DHT22;40963;52.168;21.296;2023-08-20T12:55:47;31.20;62.40
55064;DHT22;40963;52.168;21.296;2023-08-20T12:58:13;31.20;61.90
55064;DHT22;40963;52.168;21.296;2023-08-20T13:00:38;31.20;61.60
55064;DHT22;40963;52.168;21.296;2023-08-20T13:03:04;31.10;61.80
55064;DHT22;40963;52.168;21.296;2023-08-20T13:05:31;31.10;62.40
55064;DHT22;40963;52.168;21.296;2023-08-20T13:07:56;31.10;62.30
55064;DHT22;40963;52.168;21.296;2023-08-20T13:10:22;31.10;62.20
55064;DHT22;40963;52.168;21.296;2023-08-20T13:12:52;31.10;62.30
55064;DHT22;40963;52.168;21.296;2023-08-20T13:15:20;31.10;62.00
55064;DHT22;40963;52.168;21.296;2023-08-20T13:17:48;31.10;62.90
55064;DHT22;40963;52.168;21.296;2023-08-20T13:20:14;31.20;61.50
55064;DHT22;40963;52.168;21.296;2023-08-20T13:22:40;31.40;61.60
55064;DHT22;40963;52.168;21.296;2023-08-20T13:25:06;31.40;62.30
55064;DHT22;40963;52.168;21.296;2023-08-20T13:27:32;31.50;62.80
55064;DHT22;40963;52.168;21.296;2023-08-20T13:29:58;31.60;61.60
55064;DHT22;40963;52.168;21.296;2023-08-20T13:32:23;31.60;60.50
55064;DHT22;40963;52.168;21.296;2023-08-20T13:34:52;31.60;60.60
55064;DHT22;40963;52.168;21.296;2023-08-20T13:37:17;31.60;60.70
55064;DHT22;40963;52.168;21.296;2023-08-20T13:39:43;31.60;60.80
55064;DHT22;40963;52.168;21.296;2023-08-20T13:42:09;31.60;59.80
55064;DHT22;40963;52.168;21.296;2023-08-20T13:44:34;31.50;60.20
55064;DHT22;40963;52.168;21.296;2023-08-20T13:47:00;31.50;61.10
55064;DHT22;40963;52.168;21.296;2023-08-20T13:49:25;31.60;61.70
55064;DHT22;40963;52.168;21.296;2023-08-20T13:51:51;31.50;61.60
55064;DHT22;40963;52.168;21.296;2023-08-20T13:54:17;31.40;62.20
55064;DHT22;40963;52.168;21.296;2023-08-20T13:56:43;31.30;61.70
55064;DHT22;40963;52.168;21.296;2023-08-20T13:59:09;31.30;61.40
55064;DHT22;40963;52.168;21.296;2023-08-20T14:01:35;31.30;61.30
55064;DHT22;40963;52.168;21.296;2023-08-20T14:04:01;31.40;62.40
55064;DHT22;40963;52.168;21.296;2023-08-20T14:06:27;31.40;62.60
55064;DHT22;40963;52.168;21.296;2023-08-20T14:08:53;31.50;62.10
55064;DHT22;40963;52.168;21.296;2023-08-20T14:11:19;31.40;62.30
55064;DHT22;40963;52.168;21.296;2023-08-20T14:13:44;31.40;63.20
55064;DHT22;40963;52.168;21.296;2023-08-20T14:16:10;31.30;63.30
55064;DHT22;40963;52.168;21.296;2023-08-20T14:18:36;31.20;63.70
55064;DHT22;40963;52.168;21.296;2023-08-20T14:21:01;31.30;63.10
55064;DHT22;40963;52.168;21.296;2023-08-20T14:23:27;31.30;63.20
55064;DHT22;40963;52.168;21.296;2023-08-20T14:25:55;31.30;63.80
55064;DHT22;40963;52.168;21.296;2023-08-20T14:28:21;31.30;62.00
55064;DHT22;40963;52.168;21.296;2023-08-20T14:30:47;31.30;62.20
55064;DHT22;40963;52.168;21.296;2023-08-20T14:33:14;31.30;62.50
55064;DHT22;40963;52.168;21.296;2023-08-20T14:35:40;31.30;62.10
55064;DHT22;40963;52.168;21.296;2023-08-20T14:38:06;31.40;62.30
55064;DHT22;40963;52.168;21.296;2023-08-20T14:40:36;31.30;62.30
55064;DHT22;40963;52.168;21.296;2023-08-20T14:43:03;31.40;62.00
55064;DHT22;40963;52.168;21.296;2023-08-20T14:45:29;31.30;61.60
55064;DHT22;40963;52.168;21.296;2023-08-20T14:47:54;31.30;62.00
55064;DHT22;40963;52.168;21.296;2023-08-20T14:50:20;31.30;62.80
55064;DHT22;40963;52.168;21.296;2023-08-20T14:52:46;31.30;62.70
55064;DHT22;40963;52.168;21.296;2023-08-20T14:55:17;31.20;62.50
55064;DHT22;40963;52.168;21.296;2023-08-20T14:57:43;31.10;62.80
55064;DHT22;40963;52.168;21.296;2023-08-20T15:00:09;31.10;63.00
55064;DHT22;40963;52.168;21.296;2023-08-20T15:02:48;31.10;63.20
55064;DHT22;40963;52.168;21.296;2023-08-20T15:05:13;31.10;63.60
55064;DHT22;40963;52.168;21.296;2023-08-20T15:07:39;31.10;63.40
55064;DHT22;40963;52.168;21.296;2023-08-20T15:10:06;31.10;64.40
55064;DHT22;40963;52.168;21.296;2023-08-20T15:12:36;31.10;65.20
55064;DHT22;40963;52.168;21.296;2023-08-20T15:15:03;31.00;64.00
55064;DHT22;40963;52.168;21.296;2023-08-20T15:17:30;31.00;64.10
55064;DHT22;40963;52.168;21.296;2023-08-20T15:19:55;31.00;63.30
55064;DHT22;40963;52.168;21.296;2023-08-20T15:22:21;31.00;63.40
55064;DHT22;40963;52.168;21.296;2023-08-20T15:24:46;31.00;63.60
55064;DHT22;40963;52.168;21.296;2023-08-20T15:27:13;31.00;63.30
55064;DHT22;40963;52.168;21.296;2023-08-20T15:29:39;31.00;63.40